Latest Weather Observations for Rhyll

IDV60901

Issued at 7:51 am EST Friday 29 May 2015 (issued every 10 minutes, with the page automatically refreshed every 10 minutes)

About weather observations | Map of Melbourne area stations | Latest observations for Melbourne area | Other Formats
Station Details ID: 086373 Name: RHYLL Lat: -38.46 Lon: 145.31 Height: 13.4 m
Data from the previous 72 hours. | See also: Recent months at Rhyll
Date/Time
EST
Tmp

°C
App
Tmp
°C
Dew
Point
°C
Rel
Hum
%
Delta-T

°C
Wind Press
QNH
hPa
Press
MSL
hPa
Rain
since
9 am
mm
Dir
 
Spd
km/h
Gust
km/h
Spd
kts
Gust
kts
29/07:30am 10.5 8.2 7.6 82 1.4 NW 9 20 5 11 1019.9 1019.9 2.4
29/07:00am 10.3 8.0 7.4 82 1.4 NW 9 19 5 10 1019.4 1019.4 2.4
29/06:30am 10.5 8.6 7.6 82 1.4 NW 7 20 4 11 1019.2 1019.2 2.4
29/06:00am 10.6 7.6 7.5 81 1.5 NW 13 24 7 13 1018.9 1018.9 2.4
29/05:30am 10.6 7.8 7.1 79 1.7 NW 11 20 6 11 1018.6 1018.6 2.4
29/05:00am 10.9 9.0 7.4 79 1.7 NW 7 17 4 9 1018.3 1018.3 2.4
29/04:30am 10.8 8.8 7.3 79 1.7 WNW 7 15 4 8 1018.2 1018.2 2.4
29/04:00am 11.0 9.0 7.3 78 1.8 WNW 7 19 4 10 1017.8 1017.8 2.4
29/03:30am 11.2 9.2 7.3 77 1.9 WNW 7 15 4 8 1017.7 1017.7 2.4
29/03:00am 11.5 9.2 7.4 76 2.0 WNW 9 17 5 9 1017.5 1017.5 2.4
29/02:30am 11.8 7.9 7.3 74 2.2 W 17 39 9 21 1017.4 1017.4 2.4
29/02:00am 11.9 8.4 7.0 72 2.3 W 15 35 8 19 1017.0 1017.0 2.4
29/01:30am 11.8 9.6 7.9 77 1.9 WNW 9 20 5 11 1016.7 1016.7 2.4
29/01:00am 12.1 9.2 8.0 76 2.0 W 13 24 7 13 1016.6 1016.6 2.4
29/12:30am 12.4 9.6 8.5 77 1.9 WNW 13 28 7 15 1016.4 1016.4 2.4
29/12:00am 12.7 10.8 9.2 79 1.8 WNW 9 22 5 12 1016.3 1016.3 2.4
 
Date/Time
EST
Tmp

°C
App
Tmp
°C
Dew
Point
°C
Rel
Hum
%
Delta-T

°C
Wind Press
QNH
hPa
Press
MSL
hPa
Rain
since
9 am
mm
Dir
 
Spd
km/h
Gust
km/h
Spd
kts
Gust
kts
28/11:30pm 12.9 10.7 9.5 80 1.7 WNW 11 20 6 11 1016.0 1016.0 2.4
28/11:00pm 12.8 10.7 9.8 82 1.5 W 11 22 6 12 1015.9 1015.9 2.4
28/10:30pm 12.8 11.2 10.3 85 1.3 WNW 9 20 5 11 1015.8 1015.8 2.4
28/10:00pm 12.8 10.8 10.2 84 1.3 WNW 11 24 6 13 1015.8 1015.8 2.4
28/09:30pm 12.9 10.8 11.1 89 0.9 W 13 22 7 12 1015.5 1015.5 2.4
28/09:00pm 13.0 11.5 11.9 93 0.6 W 11 19 6 10 1015.2 1015.2 2.4
28/08:30pm 13.2 12.0 11.6 90 0.9 W 9 17 5 9 1015.2 1015.2 1.2
28/08:00pm 13.6 12.0 11.7 88 1.0 W 11 20 6 11 1014.8 1014.8 0.6
28/07:30pm 14.1 11.7 11.4 84 1.4 WSW 15 30 8 16 1014.0 1014.0 0.4
28/07:00pm 15.2 13.5 11.2 77 2.1 WSW 11 20 6 11 1013.8 1013.8 0.2
28/06:30pm 15.5 14.1 10.9 74 2.4 W 9 19 5 10 1013.1 1013.1 0.2
28/06:00pm 15.6 14.6 11.0 74 2.5 WNW 7 13 4 7 1012.8 1012.8 0.0
28/05:30pm 16.5 11.1 11.0 70 2.9 N 30 37 16 20 1011.9 1011.9 0.0
28/05:00pm 16.9 10.5 10.7 67 3.3 NNW 35 43 19 23 1011.9 1011.9 0.0
28/04:30pm 16.2 11.6 11.2 72 2.7 NNW 26 37 14 20 1012.0 1012.0 0.0
28/04:00pm 17.0 11.2 10.8 67 3.3 NNW 32 43 17 23 1012.0 1012.0 0.0
28/03:30pm 17.7 11.8 11.0 65 3.6 N 33 41 18 22 1012.0 1012.0 0.0
28/03:00pm 17.3 11.8 10.7 65 3.5 NNW 30 41 16 22 1012.3 1012.3 0.0
28/02:30pm 17.8 12.0 10.7 63 3.8 NNW 32 44 17 24 1012.4 1012.4 0.0
28/02:00pm 18.0 12.2 10.9 63 3.8 NNW 32 41 17 22 1012.5 1012.5 0.0
28/01:30pm 17.8 13.3 11.4 66 3.5 NNW 26 35 14 19 1013.0 1013.0 0.0
28/01:00pm 17.7 12.5 11.5 67 3.4 NNW 30 43 16 23 1013.2 1013.2 0.0
28/12:30pm 17.2 11.9 11.2 68 3.2 NNW 30 41 16 22 1013.6 1013.6 0.0
28/12:00pm 17.0 12.2 11.5 70 3.0 NNW 28 39 15 21 1014.2 1014.2 0.0
28/11:30am 16.2 9.1 10.9 71 2.8 NNW 39 50 21 27 1014.4 1014.4 0.0
28/11:19am 16.6 9.9 10.9 69 3.1 NNW 37 56 20 30 1014.7 1014.7 0.0
28/11:00am 16.7 10.1 11.4 71 2.9 NNW 37 46 20 25 1015.1 1015.1 0.0
28/10:30am 15.6 10.3 11.4 76 2.3 NNW 30 39 16 21 1015.7 1015.7 0.0
28/10:00am 14.8 9.5 11.4 80 1.8 NNW 30 35 16 19 1016.0 1016.0 0.0
28/09:30am 13.9 9.7 11.1 83 1.5 N 24 30 13 16 1016.3 1016.3 0.0
28/09:00am 13.9 9.7 11.2 84 1.4 NNW 24 35 13 19 1016.4 1016.4 0.2
28/08:30am 13.9 8.6 11.1 83 1.5 NNW 30 37 16 20 1016.3 1016.3 0.2
28/08:00am 13.8 8.8 11.1 84 1.4 NNW 28 33 15 18 1016.4 1016.4 0.2
28/07:30am 13.6 8.3 11.1 85 1.3 N 30 39 16 21 1016.4 1016.4 0.2
28/07:00am 13.4 7.6 10.9 85 1.3 N 32 39 17 21 1016.3 1016.3 0.2
28/06:30am 12.9 8.2 10.8 87 1.1 N 26 32 14 17 1016.2 1016.2 0.2
28/06:00am 13.2 8.2 10.9 86 1.2 N 28 35 15 19 1016.0 1016.0 0.2
28/05:30am 13.0 9.1 10.9 87 1.1 NNW 22 28 12 15 1016.1 1016.1 0.2
28/05:00am 13.1 8.0 10.6 85 1.3 NNW 28 33 15 18 1016.2 1016.2 0.2
28/04:30am 13.1 8.0 10.5 84 1.4 NNW 28 35 15 19 1016.2 1016.2 0.2
28/04:00am 13.3 7.8 10.7 84 1.4 NNW 30 35 16 19 1016.1 1016.1 0.2
28/03:30am 13.3 8.6 10.8 85 1.3 NNW 26 33 14 18 1016.3 1016.3 0.2
28/03:00am 13.2 9.2 10.6 84 1.4 NNW 22 30 12 16 1016.5 1016.5 0.2
28/02:30am 13.4 9.1 10.8 84 1.4 NNW 24 30 13 16 1016.8 1016.8 0.2
28/02:00am 13.7 9.9 11.0 84 1.4 NNW 22 28 12 15 1017.1 1017.1 0.2
28/01:30am 13.8 10.4 11.1 84 1.4 NNW 20 30 11 16 1017.1 1017.1 0.2
28/01:00am 13.6 10.1 11.0 84 1.4 NNW 20 28 11 15 1017.2 1017.2 0.2
28/12:30am 13.5 9.3 11.0 85 1.3 NNW 24 32 13 17 1017.3 1017.3 0.2
28/12:00am 13.7 9.8 10.9 83 1.5 NNW 22 30 12 16 1017.5 1017.5 0.2
 
Date/Time
EST
Tmp

°C
App
Tmp
°C
Dew
Point
°C
Rel
Hum
%
Delta-T

°C
Wind Press
QNH
hPa
Press
MSL
hPa
Rain
since
9 am
mm
Dir
 
Spd
km/h
Gust
km/h
Spd
kts
Gust
kts
27/11:30pm 13.9 9.7 11.1 83 1.5 NNW 24 33 13 18 1017.7 1017.7 0.2
27/11:00pm 13.9 10.5 11.1 83 1.5 NNW 20 28 11 15 1017.8 1017.8 0.2
27/10:30pm 13.7 11.2 10.9 83 1.5 NNW 15 22 8 12 1017.9 1017.9 0.2
27/10:00pm 13.4 10.8 10.8 84 1.4 N 15 19 8 10 1017.8 1017.8 0.2
27/09:30pm 13.5 10.5 10.5 82 1.6 N 17 20 9 11 1018.0 1018.0 0.2
27/09:00pm 13.9 9.9 10.5 80 1.8 NNW 22 30 12 16 1018.0 1018.0 0.2
27/08:30pm 13.8 10.8 10.8 82 1.6 N 17 22 9 12 1018.2 1018.2 0.2
27/08:00pm 14.4 10.1 10.8 79 1.9 NNW 24 32 13 17 1018.2 1018.2 0.2
27/07:30pm 14.8 9.4 10.8 77 2.1 NNW 30 39 16 21 1018.1 1018.1 0.2
27/07:00pm 14.9 9.5 10.9 77 2.1 NNW 30 35 16 19 1018.1 1018.1 0.2
27/06:30pm 14.9 10.3 11.1 78 2.0 NNW 26 32 14 17 1017.8 1017.8 0.2
27/06:00pm 15.4 10.0 11.0 75 2.3 NNW 30 35 16 19 1017.6 1017.6 0.2
27/05:30pm 15.1 10.5 11.1 77 2.1 N 26 30 14 16 1017.3 1017.3 0.2
27/05:00pm 15.3 12.0 11.5 78 2.0 NNW 20 26 11 14 1017.1 1017.1 0.2
27/04:30pm 15.8 12.0 11.2 74 2.5 N 22 28 12 15 1017.0 1017.0 0.2
27/04:00pm 15.8 12.6 11.2 74 2.5 NNW 19 24 10 13 1017.2 1017.2 0.2
27/03:30pm 15.8 12.5 11.0 73 2.6 NNW 19 22 10 12 1017.3 1017.3 0.2
27/03:00pm 16.1 12.2 10.8 71 2.8 N 22 28 12 15 1017.3 1017.3 0.2
27/02:30pm 16.2 12.4 11.2 72 2.7 NNW 22 28 12 15 1017.4 1017.4 0.2
27/02:00pm 16.2 12.8 11.2 72 2.7 NNW 20 32 11 17 1017.6 1017.6 0.2
27/01:30pm 16.5 11.4 10.6 68 3.1 NNW 28 33 15 18 1017.7 1017.7 0.2
27/01:00pm 15.8 12.5 10.8 72 2.7 NNW 19 24 10 13 1018.2 1018.2 0.2
27/12:30pm 14.2 10.6 10.6 79 1.9 N 20 24 11 13 1018.7 1018.7 0.2
27/12:00pm 14.6 11.6 10.6 77 2.1 NNW 17 24 9 13 1019.3 1019.3 0.0
27/11:30am 14.5 10.3 9.9 74 2.4 NNW 22 30 12 16 1019.8 1019.8 0.0
27/11:00am 15.0 10.4 9.8 71 2.7 NNW 24 32 13 17 1019.9 1019.9 0.0
27/10:30am 14.5 10.6 9.5 72 2.6 N 20 26 11 14 1020.1 1020.1 0.0
27/10:00am 13.8 12.5 9.8 77 2.1 N 7 11 4 6 1020.4 1020.4 0.0
27/09:30am 12.8 11.3 9.1 78 1.9 NNE 7 15 4 8 1020.2 1020.2 0.0
27/09:00am 13.8 12.0 9.6 76 2.1 NNE 9 13 5 7 1020.2 1020.2 0.0
27/08:30am 11.9 10.0 8.9 82 1.5 NE 9 13 5 7 1020.3 1020.3 0.0
27/08:00am 11.6 9.6 8.8 83 1.4 NE 9 13 5 7 1020.4 1020.4 0.0
27/07:30am 11.5 8.7 8.5 82 1.5 NE 13 17 7 9 1020.2 1020.2 0.0
27/07:00am 11.6 8.8 8.6 82 1.5 NNE 13 19 7 10 1020.4 1020.4 0.0
27/06:30am 11.2 9.6 8.8 85 1.2 NNE 7 11 4 6 1020.3 1020.3 0.0
27/06:00am 11.1 10.1 8.7 85 1.2 NNE 4 9 2 5 1020.5 1020.5 0.0
27/05:30am 11.2 8.3 8.1 81 1.5 NNW 13 15 7 8 1020.7 1020.7 0.0
27/05:00am 11.9 9.8 8.4 79 1.7 N 9 11 5 6 1020.7 1020.7 0.0
27/04:30am 11.3 9.9 8.7 84 1.3 NNE 6 9 3 5 1020.7 1020.7 0.0
27/04:00am 11.3 9.9 8.9 85 1.2 NE 6 7 3 4 1021.0 1021.0 0.0
27/03:30am 11.3 9.3 8.5 83 1.4 NNE 9 13 5 7 1021.0 1021.0 0.0
27/03:00am 11.2 9.6 8.8 85 1.2 NNE 7 11 4 6 1021.5 1021.5 0.0
27/02:30am 11.1 9.5 8.7 85 1.2 NNE 7 11 4 6 1021.7 1021.7 0.0
27/02:00am 11.2 8.5 8.9 86 1.1 NE 13 15 7 8 1022.0 1022.0 0.0
27/01:30am 11.4 9.0 8.6 83 1.4 NNE 11 13 6 7 1022.2 1022.2 0.0
27/01:00am 11.0 9.4 8.8 86 1.1 NE 7 11 4 6 1022.4 1022.4 0.0
27/12:30am 11.5 10.2 9.1 85 1.2 NNE 6 9 3 5 1022.9 1022.9 0.0
27/12:00am 11.6 9.7 9.0 84 1.3 NNE 9 15 5 8 1023.2 1023.2 0.0
 
Date/Time
EST
Tmp

°C
App
Tmp
°C
Dew
Point
°C
Rel
Hum
%
Delta-T

°C
Wind Press
QNH
hPa
Press
MSL
hPa
Rain
since
9 am
mm
Dir
 
Spd
km/h
Gust
km/h
Spd
kts
Gust
kts
26/11:30pm 11.5 8.8 9.1 85 1.2 NE 13 15 7 8 1023.4 1023.4 0.0
26/11:00pm 11.9 10.1 9.5 85 1.2 NE 9 11 5 6 1023.6 1023.6 0.0
26/10:30pm 11.9 9.6 9.1 83 1.4 NNE 11 13 6 7 1023.7 1023.7 0.0
26/10:00pm 11.8 9.2 9.4 85 1.2 NE 13 15 7 8 1023.9 1023.9 0.0
26/09:30pm 11.7 9.0 8.9 83 1.4 ENE 13 17 7 9 1024.0 1024.0 0.0
26/09:00pm 11.8 8.6 8.6 81 1.6 ENE 15 17 8 9 1024.1 1024.1 0.0
26/08:30pm 11.9 9.8 8.2 78 1.8 NE 9 13 5 7 1024.4 1024.4 0.0
26/08:00pm 12.6 10.7 8.9 78 1.8 NNE 9 11 5 6 1024.6 1024.6 0.0
26/07:30pm 12.3 10.1 9.3 82 1.5 NE 11 13 6 7 1024.7 1024.7 0.0
26/07:00pm 12.2 11.0 10.4 89 0.9 ENE 7 9 4 5 1024.7 1024.7 0.0
26/06:30pm 12.4 11.3 10.1 86 1.2 E 6 7 3 4 1024.9 1024.9 0.0
26/06:00pm 13.0 11.9 10.0 82 1.5 NE 6 7 3 4 1025.0 1025.0 0.0
26/05:30pm 13.0 11.0 10.2 83 1.4 NE 11 13 6 7 1024.8 1024.8 0.0
26/05:00pm 13.0 11.9 9.8 81 1.6 NE 6 7 3 4 1024.8 1024.8 0.0
26/04:30pm 12.9 12.5 8.4 74 2.2 CALM 0 0 0 0 1025.1 1025.1 0.0
26/04:00pm 13.2 12.8 8.1 71 2.5 CALM 0 0 0 0 1025.3 1025.3 0.0
26/03:30pm 13.6 13.1 8.0 69 2.8 CALM 0 0 0 0 1025.5 1025.5 0.0
26/03:00pm 13.7 13.2 7.7 67 2.9 CALM 0 0 0 0 1025.5 1025.5 0.0
26/02:30pm 14.6 13.7 9.2 70 2.8 ENE 4 6 2 3 1025.8 1025.8 0.0
26/02:00pm 14.3 12.9 8.9 70 2.7 ENE 6 6 3 3 1026.2 1026.2 0.0
26/01:30pm 14.2 12.7 8.4 68 2.9 E 6 6 3 3 1026.6 1026.6 0.0
26/01:00pm 15.3 13.9 8.8 65 3.3 E 6 7 3 4 1027.0 1027.0 0.0
26/12:30pm 16.3 15.1 10.4 68 3.1 ENE 7 7 4 4 1027.5 1027.5 0.0
26/12:00pm 13.6 12.0 8.2 70 2.7 ENE 6 7 3 4 1028.0 1028.0 0.0
26/11:30am 13.4 12.0 8.7 73 2.4 ENE 6 7 3 4 1028.5 1028.5 0.0
26/11:00am 12.0 10.1 7.5 74 2.2 N 7 9 4 5 1029.2 1029.2 0.0
26/10:30am 11.4 9.6 7.3 76 2.0 N 6 9 3 5 1029.5 1029.5 0.0
26/10:00am 11.1 9.5 6.5 73 2.1 NNE 4 6 2 3 1029.4 1029.4 0.0
26/09:30am 11.2 8.3 6.5 73 2.2 NE 11 15 6 8 1029.5 1029.5 0.0
26/09:00am 10.4 7.5 6.4 76 1.9 NE 11 15 6 8 1029.5 1029.5 0.0
26/08:30am 9.4 6.6 6.8 84 1.2 NNE 11 17 6 9 1029.6 1029.6 0.0
26/08:00am 8.7 5.1 6.7 87 0.9 NE 15 17 8 9 1029.5 1029.5 0.0

Latest Capital City Observations: Canberra | Sydney | Melbourne | Brisbane | Adelaide | Perth | Hobart | Darwin

Other Formats:

Comma delimited format used in spreadsheet applications
http://www.bom.gov.au/fwo/IDV60901/IDV60901.94892.axf

JavaScript Object Notation format (JSON) in row-major order
http://www.bom.gov.au/fwo/IDV60901/IDV60901.94892.json